sensor_id;sensor_type;location;lat;lon;timestamp;temperature;humidity
5415;DHT22;2730;51.512;7.504;2024-02-21T00:01:15;8.90;99.90
5415;DHT22;2730;51.512;7.504;2024-02-21T00:03:43;8.90;58.40
5415;DHT22;2730;51.512;7.504;2024-02-21T00:06:11;8.80;99.90
5415;DHT22;2730;51.512;7.504;2024-02-21T00:08:38;8.90;99.90
5415;DHT22;2730;51.512;7.504;2024-02-21T00:11:05;8.90;19.20
5415;DHT22;2730;51.512;7.504;2024-02-21T00:13:35;8.90;2.50
5415;DHT22;2730;51.512;7.504;2024-02-21T00:16:06;8.90;1.00
5415;DHT22;2730;51.512;7.504;2024-02-21T00:18:32;8.90;25.60
5415;DHT22;2730;51.512;7.504;2024-02-21T00:21:01;8.90;99.90
5415;DHT22;2730;51.512;7.504;2024-02-21T00:23:29;9.00;30.20
5415;DHT22;2730;51.512;7.504;2024-02-21T00:25:57;9.00;99.90
5415;DHT22;2730;51.512;7.504;2024-02-21T00:28:26;8.90;99.90
5415;DHT22;2730;51.512;7.504;2024-02-21T00:30:53;9.00;72.80
5415;DHT22;2730;51.512;7.504;2024-02-21T00:33:20;9.00;99.90
5415;DHT22;2730;51.512;7.504;2024-02-21T00:35:47;9.00;99.90
5415;DHT22;2730;51.512;7.504;2024-02-21T00:38:14;9.00;99.90
5415;DHT22;2730;51.512;7.504;2024-02-21T00:40:45;8.90;1.00
5415;DHT22;2730;51.512;7.504;2024-02-21T00:43:11;8.90;1.00
5415;DHT22;2730;51.512;7.504;2024-02-21T00:45:38;8.80;1.00
5415;DHT22;2730;51.512;7.504;2024-02-21T00:48:06;8.80;1.00
5415;DHT22;2730;51.512;7.504;2024-02-21T00:50:34;8.80;1.00
5415;DHT22;2730;51.512;7.504;2024-02-21T00:53:04;8.80;4.30
5415;DHT22;2730;51.512;7.504;2024-02-21T00:55:31;8.90;1.00
5415;DHT22;2730;51.512;7.504;2024-02-21T00:58:07;8.90;1.00
5415;DHT22;2730;51.512;7.504;2024-02-21T01:00:34;8.90;1.00
5415;DHT22;2730;51.512;7.504;2024-02-21T01:03:01;8.80;1.00
5415;DHT22;2730;51.512;7.504;2024-02-21T01:05:28;8.70;99.90
5415;DHT22;2730;51.512;7.504;2024-02-21T01:07:56;8.80;1.00
5415;DHT22;2730;51.512;7.504;2024-02-21T01:10:23;8.90;1.00
5415;DHT22;2730;51.512;7.504;2024-02-21T01:12:50;8.90;1.00
5415;DHT22;2730;51.512;7.504;2024-02-21T01:15:18;8.80;1.00
5415;DHT22;2730;51.512;7.504;2024-02-21T01:17:49;8.80;1.00
5415;DHT22;2730;51.512;7.504;2024-02-21T01:20:20;8.80;99.90
5415;DHT22;2730;51.512;7.504;2024-02-21T01:22:47;8.90;1.00
5415;DHT22;2730;51.512;7.504;2024-02-21T01:25:13;8.90;99.90
5415;DHT22;2730;51.512;7.504;2024-02-21T01:27:40;8.80;99.90
5415;DHT22;2730;51.512;7.504;2024-02-21T01:30:08;8.80;1.00
5415;DHT22;2730;51.512;7.504;2024-02-21T01:32:39;8.70;1.00
5415;DHT22;2730;51.512;7.504;2024-02-21T01:35:08;8.80;99.90
5415;DHT22;2730;51.512;7.504;2024-02-21T01:37:35;8.80;99.90
5415;DHT22;2730;51.512;7.504;2024-02-21T01:40:06;8.80;99.90
5415;DHT22;2730;51.512;7.504;2024-02-21T01:42:38;8.80;99.90
5415;DHT22;2730;51.512;7.504;2024-02-21T01:45:07;8.80;99.40
5415;DHT22;2730;51.512;7.504;2024-02-21T01:47:34;8.70;99.90
5415;DHT22;2730;51.512;7.504;2024-02-21T01:50:05;8.70;99.90
5415;DHT22;2730;51.512;7.504;2024-02-21T01:52:33;8.60;99.90
5415;DHT22;2730;51.512;7.504;2024-02-21T01:55:01;8.60;99.90
5415;DHT22;2730;51.512;7.504;2024-02-21T01:57:30;8.60;99.90
5415;DHT22;2730;51.512;7.504;2024-02-21T01:59:57;8.60;99.90
5415;DHT22;2730;51.512;7.504;2024-02-21T02:02:24;8.60;99.90
5415;DHT22;2730;51.512;7.504;2024-02-21T02:04:51;8.70;99.90
5415;DHT22;2730;51.512;7.504;2024-02-21T02:07:20;8.70;99.90
5415;DHT22;2730;51.512;7.504;2024-02-21T02:09:48;8.70;99.90
5415;DHT22;2730;51.512;7.504;2024-02-21T02:12:15;8.60;99.90
5415;DHT22;2730;51.512;7.504;2024-02-21T02:14:42;8.60;1.00
5415;DHT22;2730;51.512;7.504;2024-02-21T02:17:09;8.70;99.90
5415;DHT22;2730;51.512;7.504;2024-02-21T02:19:37;8.70;99.90
5415;DHT22;2730;51.512;7.504;2024-02-21T02:22:12;8.80;99.90
5415;DHT22;2730;51.512;7.504;2024-02-21T02:24:43;8.70;99.90
5415;DHT22;2730;51.512;7.504;2024-02-21T02:27:10;8.70;99.90
5415;DHT22;2730;51.512;7.504;2024-02-21T02:29:38;8.60;99.90
5415;DHT22;2730;51.512;7.504;2024-02-21T02:32:07;8.60;1.00
5415;DHT22;2730;51.512;7.504;2024-02-21T02:34:35;8.60;1.00
5415;DHT22;2730;51.512;7.504;2024-02-21T02:37:05;8.60;1.00
5415;DHT22;2730;51.512;7.504;2024-02-21T02:39:32;8.60;1.00
5415;DHT22;2730;51.512;7.504;2024-02-21T02:42:00;8.60;1.00
5415;DHT22;2730;51.512;7.504;2024-02-21T02:44:26;8.50;1.00
5415;DHT22;2730;51.512;7.504;2024-02-21T02:46:54;8.50;99.90
5415;DHT22;2730;51.512;7.504;2024-02-21T02:49:27;8.40;99.90
5415;DHT22;2730;51.512;7.504;2024-02-21T02:51:53;8.40;1.00
5415;DHT22;2730;51.512;7.504;2024-02-21T02:54:20;8.30;99.90
5415;DHT22;2730;51.512;7.504;2024-02-21T02:56:47;8.30;99.90
5415;DHT22;2730;51.512;7.504;2024-02-21T02:59:15;8.20;1.00
5415;DHT22;2730;51.512;7.504;2024-02-21T03:01:42;8.20;33.40
5415;DHT22;2730;51.512;7.504;2024-02-21T03:04:11;8.20;1.00
5415;DHT22;2730;51.512;7.504;2024-02-21T03:06:38;8.20;1.00
5415;DHT22;2730;51.512;7.504;2024-02-21T03:09:05;8.30;1.00
5415;DHT22;2730;51.512;7.504;2024-02-21T03:11:36;8.30;99.90
5415;DHT22;2730;51.512;7.504;2024-02-21T03:14:06;8.10;99.90
5415;DHT22;2730;51.512;7.504;2024-02-21T03:16:34;8.20;1.00
5415;DHT22;2730;51.512;7.504;2024-02-21T03:19:01;8.20;99.90
5415;DHT22;2730;51.512;7.504;2024-02-21T03:21:28;8.30;13.70
5415;DHT22;2730;51.512;7.504;2024-02-21T03:23:55;8.30;99.90
5415;DHT22;2730;51.512;7.504;2024-02-21T03:26:26;8.30;99.90
5415;DHT22;2730;51.512;7.504;2024-02-21T03:28:53;8.30;99.90
5415;DHT22;2730;51.512;7.504;2024-02-21T03:31:29;8.30;99.90
5415;DHT22;2730;51.512;7.504;2024-02-21T03:33:59;8.40;3.00
5415;DHT22;2730;51.512;7.504;2024-02-21T03:36:28;8.40;1.00
5415;DHT22;2730;51.512;7.504;2024-02-21T03:38:56;8.40;1.00
5415;DHT22;2730;51.512;7.504;2024-02-21T03:41:26;8.50;1.00
5415;DHT22;2730;51.512;7.504;2024-02-21T03:43:53;8.60;89.20
5415;DHT22;2730;51.512;7.504;2024-02-21T03:46:20;8.60;1.00
5415;DHT22;2730;51.512;7.504;2024-02-21T03:48:47;8.60;1.00
5415;DHT22;2730;51.512;7.504;2024-02-21T03:51:15;8.60;1.00
5415;DHT22;2730;51.512;7.504;2024-02-21T03:53:43;8.60;1.00
5415;DHT22;2730;51.512;7.504;2024-02-21T03:56:10;8.60;1.00
5415;DHT22;2730;51.512;7.504;2024-02-21T03:58:36;8.60;1.00
5415;DHT22;2730;51.512;7.504;2024-02-21T04:01:03;8.70;99.90
5415;DHT22;2730;51.512;7.504;2024-02-21T04:03:30;8.60;99.90
5415;DHT22;2730;51.512;7.504;2024-02-21T04:05:57;8.70;99.90
5415;DHT22;2730;51.512;7.504;2024-02-21T04:08:26;8.70;99.90
5415;DHT22;2730;51.512;7.504;2024-02-21T04:10:53;8.70;99.90
5415;DHT22;2730;51.512;7.504;2024-02-21T04:13:19;8.70;99.90
5415;DHT22;2730;51.512;7.504;2024-02-21T04:15:48;8.70;99.90
5415;DHT22;2730;51.512;7.504;2024-02-21T04:18:15;8.80;99.90
5415;DHT22;2730;51.512;7.504;2024-02-21T04:20:41;8.90;17.30
5415;DHT22;2730;51.512;7.504;2024-02-21T04:23:09;8.80;1.00
5415;DHT22;2730;51.512;7.504;2024-02-21T04:25:39;8.90;1.00
5415;DHT22;2730;51.512;7.504;2024-02-21T04:28:06;8.80;1.00
5415;DHT22;2730;51.512;7.504;2024-02-21T04:30:34;8.80;1.00
5415;DHT22;2730;51.512;7.504;2024-02-21T04:33:02;8.90;1.00
5415;DHT22;2730;51.512;7.504;2024-02-21T04:35:29;8.70;99.90
5415;DHT22;2730;51.512;7.504;2024-02-21T04:37:55;8.70;99.90
5415;DHT22;2730;51.512;7.504;2024-02-21T04:40:22;8.70;99.90
5415;DHT22;2730;51.512;7.504;2024-02-21T04:42:53;8.80;99.90
5415;DHT22;2730;51.512;7.504;2024-02-21T04:45:22;8.80;99.90
5415;DHT22;2730;51.512;7.504;2024-02-21T04:47:49;8.90;39.20
5415;DHT22;2730;51.512;7.504;2024-02-21T04:50:16;8.90;1.00
5415;DHT22;2730;51.512;7.504;2024-02-21T04:52:43;8.90;1.00
5415;DHT22;2730;51.512;7.504;2024-02-21T04:55:11;8.80;99.90
5415;DHT22;2730;51.512;7.504;2024-02-21T04:57:37;8.90;6.60
5415;DHT22;2730;51.512;7.504;2024-02-21T05:00:08;8.80;97.10
5415;DHT22;2730;51.512;7.504;2024-02-21T05:02:35;8.80;99.90
5415;DHT22;2730;51.512;7.504;2024-02-21T05:05:03;8.80;99.90
5415;DHT22;2730;51.512;7.504;2024-02-21T05:07:30;8.70;99.90
5415;DHT22;2730;51.512;7.504;2024-02-21T05:09:57;8.80;99.90
5415;DHT22;2730;51.512;7.504;2024-02-21T05:12:24;8.80;11.30
5415;DHT22;2730;51.512;7.504;2024-02-21T05:14:51;8.80;1.00
5415;DHT22;2730;51.512;7.504;2024-02-21T05:17:19;8.70;1.00
5415;DHT22;2730;51.512;7.504;2024-02-21T05:19:46;8.60;99.90
5415;DHT22;2730;51.512;7.504;2024-02-21T05:22:13;8.60;99.90
5415;DHT22;2730;51.512;7.504;2024-02-21T05:24:40;8.60;99.90
5415;DHT22;2730;51.512;7.504;2024-02-21T05:27:07;8.60;57.80
5415;DHT22;2730;51.512;7.504;2024-02-21T05:29:33;8.70;59.40
5415;DHT22;2730;51.512;7.504;2024-02-21T05:32:00;8.70;1.00
5415;DHT22;2730;51.512;7.504;2024-02-21T05:34:29;8.80;1.00
5415;DHT22;2730;51.512;7.504;2024-02-21T05:36:56;8.70;1.00
5415;DHT22;2730;51.512;7.504;2024-02-21T05:39:25;8.70;1.00
5415;DHT22;2730;51.512;7.504;2024-02-21T05:41:52;8.70;1.00
5415;DHT22;2730;51.512;7.504;2024-02-21T05:44:23;8.60;1.00
5415;DHT22;2730;51.512;7.504;2024-02-21T05:46:51;8.70;1.00
5415;DHT22;2730;51.512;7.504;2024-02-21T05:49:20;8.80;1.00
5415;DHT22;2730;51.512;7.504;2024-02-21T05:51:48;8.70;1.00
5415;DHT22;2730;51.512;7.504;2024-02-21T05:54:15;8.70;1.00
5415;DHT22;2730;51.512;7.504;2024-02-21T05:56:44;8.70;99.90
5415;DHT22;2730;51.512;7.504;2024-02-21T05:59:11;8.70;99.90
5415;DHT22;2730;51.512;7.504;2024-02-21T06:01:41;8.70;99.90
5415;DHT22;2730;51.512;7.504;2024-02-21T06:04:10;8.80;99.90
5415;DHT22;2730;51.512;7.504;2024-02-21T06:06:39;8.80;99.90
5415;DHT22;2730;51.512;7.504;2024-02-21T06:09:08;8.70;99.90
5415;DHT22;2730;51.512;7.504;2024-02-21T06:11:35;8.70;99.90
5415;DHT22;2730;51.512;7.504;2024-02-21T06:14:03;8.70;99.90
5415;DHT22;2730;51.512;7.504;2024-02-21T06:16:30;8.60;99.90
5415;DHT22;2730;51.512;7.504;2024-02-21T06:18:56;8.60;99.90
5415;DHT22;2730;51.512;7.504;2024-02-21T06:21:23;8.60;99.90
5415;DHT22;2730;51.512;7.504;2024-02-21T06:23:50;8.70;99.90
5415;DHT22;2730;51.512;7.504;2024-02-21T06:26:19;8.70;99.90
5415;DHT22;2730;51.512;7.504;2024-02-21T06:28:46;8.60;99.90
5415;DHT22;2730;51.512;7.504;2024-02-21T06:31:13;8.70;99.90
5415;DHT22;2730;51.512;7.504;2024-02-21T06:33:41;8.70;99.90
5415;DHT22;2730;51.512;7.504;2024-02-21T06:36:08;8.80;99.90
5415;DHT22;2730;51.512;7.504;2024-02-21T06:38:36;8.80;58.00
5415;DHT22;2730;51.512;7.504;2024-02-21T06:41:02;8.80;1.20
5415;DHT22;2730;51.512;7.504;2024-02-21T06:43:31;8.80;1.00
5415;DHT22;2730;51.512;7.504;2024-02-21T06:45:58;8.70;17.90
5415;DHT22;2730;51.512;7.504;2024-02-21T06:48:25;8.70;1.00
5415;DHT22;2730;51.512;7.504;2024-02-21T06:50:52;8.70;1.00
5415;DHT22;2730;51.512;7.504;2024-02-21T06:53:21;8.70;1.00
5415;DHT22;2730;51.512;7.504;2024-02-21T06:55:51;8.70;1.00
5415;DHT22;2730;51.512;7.504;2024-02-21T06:58:19;8.80;1.00
5415;DHT22;2730;51.512;7.504;2024-02-21T07:00:47;8.80;1.00
5415;DHT22;2730;51.512;7.504;2024-02-21T07:03:13;8.90;1.00
5415;DHT22;2730;51.512;7.504;2024-02-21T07:05:40;9.00;99.90
5415;DHT22;2730;51.512;7.504;2024-02-21T07:08:07;9.00;99.90
5415;DHT22;2730;51.512;7.504;2024-02-21T07:10:33;9.00;99.90
5415;DHT22;2730;51.512;7.504;2024-02-21T07:13:00;9.10;99.90
5415;DHT22;2730;51.512;7.504;2024-02-21T07:15:27;9.10;99.90
5415;DHT22;2730;51.512;7.504;2024-02-21T07:17:57;9.00;99.90
5415;DHT22;2730;51.512;7.504;2024-02-21T07:20:24;9.10;99.90
5415;DHT22;2730;51.512;7.504;2024-02-21T07:22:51;9.10;99.90
5415;DHT22;2730;51.512;7.504;2024-02-21T07:25:18;9.10;99.90
5415;DHT22;2730;51.512;7.504;2024-02-21T07:27:45;9.20;99.90
5415;DHT22;2730;51.512;7.504;2024-02-21T07:30:12;9.20;99.90
5415;DHT22;2730;51.512;7.504;2024-02-21T07:32:39;9.10;99.90
5415;DHT22;2730;51.512;7.504;2024-02-21T07:35:10;9.10;99.90
5415;DHT22;2730;51.512;7.504;2024-02-21T07:37:37;9.10;99.90
5415;DHT22;2730;51.512;7.504;2024-02-21T07:40:05;9.30;99.90
5415;DHT22;2730;51.512;7.504;2024-02-21T07:42:32;9.20;99.90
5415;DHT22;2730;51.512;7.504;2024-02-21T07:44:59;9.20;99.90
5415;DHT22;2730;51.512;7.504;2024-02-21T07:47:27;9.30;99.90
5415;DHT22;2730;51.512;7.504;2024-02-21T07:49:54;9.30;99.90
5415;DHT22;2730;51.512;7.504;2024-02-21T07:52:23;9.30;99.90
5415;DHT22;2730;51.512;7.504;2024-02-21T07:54:50;9.30;99.90
5415;DHT22;2730;51.512;7.504;2024-02-21T07:57:17;9.40;99.90
5415;DHT22;2730;51.512;7.504;2024-02-21T07:59:46;9.50;98.90
5415;DHT22;2730;51.512;7.504;2024-02-21T08:02:13;9.50;99.90
5415;DHT22;2730;51.512;7.504;2024-02-21T08:04:41;9.60;82.10
5415;DHT22;2730;51.512;7.504;2024-02-21T08:07:08;9.80;38.20
5415;DHT22;2730;51.512;7.504;2024-02-21T08:09:39;9.70;48.30
5415;DHT22;2730;51.512;7.504;2024-02-21T08:12:06;9.80;69.70
5415;DHT22;2730;51.512;7.504;2024-02-21T08:14:36;9.70;5.10
5415;DHT22;2730;51.512;7.504;2024-02-21T08:17:03;9.70;4.40
5415;DHT22;2730;51.512;7.504;2024-02-21T08:19:30;9.70;55.20
5415;DHT22;2730;51.512;7.504;2024-02-21T08:21:57;9.80;12.60
5415;DHT22;2730;51.512;7.504;2024-02-21T08:24:24;9.80;1.00
5415;DHT22;2730;51.512;7.504;2024-02-21T08:26:55;9.80;1.00
5415;DHT22;2730;51.512;7.504;2024-02-21T08:29:22;9.70;1.00
5415;DHT22;2730;51.512;7.504;2024-02-21T08:31:50;9.70;1.00
5415;DHT22;2730;51.512;7.504;2024-02-21T08:34:18;9.80;1.00
5415;DHT22;2730;51.512;7.504;2024-02-21T08:36:45;9.90;1.00
5415;DHT22;2730;51.512;7.504;2024-02-21T08:39:13;10.10;1.00
5415;DHT22;2730;51.512;7.504;2024-02-21T08:41:42;10.00;1.00
5415;DHT22;2730;51.512;7.504;2024-02-21T08:44:10;10.10;1.00
5415;DHT22;2730;51.512;7.504;2024-02-21T08:46:37;10.10;1.00
5415;DHT22;2730;51.512;7.504;2024-02-21T08:49:05;10.20;1.00
5415;DHT22;2730;51.512;7.504;2024-02-21T08:51:32;10.20;1.00
5415;DHT22;2730;51.512;7.504;2024-02-21T08:54:02;10.00;1.00
5415;DHT22;2730;51.512;7.504;2024-02-21T08:56:30;10.00;1.00
5415;DHT22;2730;51.512;7.504;2024-02-21T08:59:00;10.00;1.00
5415;DHT22;2730;51.512;7.504;2024-02-21T09:01:31;10.10;1.00
5415;DHT22;2730;51.512;7.504;2024-02-21T09:03:59;9.90;1.00
5415;DHT22;2730;51.512;7.504;2024-02-21T09:06:26;9.90;1.00
5415;DHT22;2730;51.512;7.504;2024-02-21T09:08:56;9.90;1.00
5415;DHT22;2730;51.512;7.504;2024-02-21T09:11:23;9.80;1.00
5415;DHT22;2730;51.512;7.504;2024-02-21T09:13:49;9.80;48.90
5415;DHT22;2730;51.512;7.504;2024-02-21T09:16:19;9.70;99.90
5415;DHT22;2730;51.512;7.504;2024-02-21T09:18:47;9.80;99.90
5415;DHT22;2730;51.512;7.504;2024-02-21T09:21:14;9.80;99.90
5415;DHT22;2730;51.512;7.504;2024-02-21T09:23:41;9.80;99.90
5415;DHT22;2730;51.512;7.504;2024-02-21T09:26:08;9.70;1.00
5415;DHT22;2730;51.512;7.504;2024-02-21T09:28:39;9.60;1.00
5415;DHT22;2730;51.512;7.504;2024-02-21T09:31:06;9.50;1.00
5415;DHT22;2730;51.512;7.504;2024-02-21T09:33:33;9.50;1.00
5415;DHT22;2730;51.512;7.504;2024-02-21T09:36:01;9.60;1.00
5415;DHT22;2730;51.512;7.504;2024-02-21T09:38:31;9.60;1.00
5415;DHT22;2730;51.512;7.504;2024-02-21T09:41:00;9.60;1.00
5415;DHT22;2730;51.512;7.504;2024-02-21T09:43:31;9.60;1.00
5415;DHT22;2730;51.512;7.504;2024-02-21T09:46:02;9.60;1.00
5415;DHT22;2730;51.512;7.504;2024-02-21T09:48:39;9.50;1.00
5415;DHT22;2730;51.512;7.504;2024-02-21T09:51:12;9.60;1.00
5415;DHT22;2730;51.512;7.504;2024-02-21T09:53:43;9.70;1.00
5415;DHT22;2730;51.512;7.504;2024-02-21T09:56:12;9.80;1.00
5415;DHT22;2730;51.512;7.504;2024-02-21T09:58:39;9.70;1.00
5415;DHT22;2730;51.512;7.504;2024-02-21T10:01:06;9.70;1.00
5415;DHT22;2730;51.512;7.504;2024-02-21T10:03:34;9.70;1.00
5415;DHT22;2730;51.512;7.504;2024-02-21T10:06:01;9.70;1.00
5415;DHT22;2730;51.512;7.504;2024-02-21T10:08:30;9.60;1.00
5415;DHT22;2730;51.512;7.504;2024-02-21T10:10:57;9.60;1.00
5415;DHT22;2730;51.512;7.504;2024-02-21T10:13:28;9.50;1.00
5415;DHT22;2730;51.512;7.504;2024-02-21T10:16:02;9.60;1.00
5415;DHT22;2730;51.512;7.504;2024-02-21T10:18:30;9.60;1.00
5415;DHT22;2730;51.512;7.504;2024-02-21T10:21:05;9.60;1.00
5415;DHT22;2730;51.512;7.504;2024-02-21T10:23:47;9.50;1.00
5415;DHT22;2730;51.512;7.504;2024-02-21T10:26:15;9.50;1.00
5415;DHT22;2730;51.512;7.504;2024-02-21T10:28:41;9.50;1.00
5415;DHT22;2730;51.512;7.504;2024-02-21T10:31:10;9.50;1.00
5415;DHT22;2730;51.512;7.504;2024-02-21T10:33:38;9.50;1.00
5415;DHT22;2730;51.512;7.504;2024-02-21T10:36:10;9.50;1.00
5415;DHT22;2730;51.512;7.504;2024-02-21T10:38:38;9.40;1.00
5415;DHT22;2730;51.512;7.504;2024-02-21T10:41:21;9.50;1.00
5415;DHT22;2730;51.512;7.504;2024-02-21T10:43:50;9.50;99.90
5415;DHT22;2730;51.512;7.504;2024-02-21T10:46:20;9.50;99.90
5415;DHT22;2730;51.512;7.504;2024-02-21T10:49:04;9.50;99.90
5415;DHT22;2730;51.512;7.504;2024-02-21T10:51:34;9.50;99.90
5415;DHT22;2730;51.512;7.504;2024-02-21T10:54:11;9.60;99.90
5415;DHT22;2730;51.512;7.504;2024-02-21T10:56:42;9.70;99.90
5415;DHT22;2730;51.512;7.504;2024-02-21T10:59:13;9.70;99.90
5415;DHT22;2730;51.512;7.504;2024-02-21T11:01:40;9.60;99.90
5415;DHT22;2730;51.512;7.504;2024-02-21T11:04:08;9.70;99.90
5415;DHT22;2730;51.512;7.504;2024-02-21T11:06:38;9.70;99.90
5415;DHT22;2730;51.512;7.504;2024-02-21T11:09:09;9.60;99.90
5415;DHT22;2730;51.512;7.504;2024-02-21T11:11:38;9.70;99.90
5415;DHT22;2730;51.512;7.504;2024-02-21T11:14:07;9.80;99.90
5415;DHT22;2730;51.512;7.504;2024-02-21T11:16:38;10.00;64.70
5415;DHT22;2730;51.512;7.504;2024-02-21T11:19:10;10.30;1.00
5415;DHT22;2730;51.512;7.504;2024-02-21T11:21:47;10.30;1.00
5415;DHT22;2730;51.512;7.504;2024-02-21T11:24:14;10.30;1.00
5415;DHT22;2730;51.512;7.504;2024-02-21T11:26:51;10.50;1.00
5415;DHT22;2730;51.512;7.504;2024-02-21T11:29:26;10.70;1.00
5415;DHT22;2730;51.512;7.504;2024-02-21T11:31:56;11.00;99.90
5415;DHT22;2730;51.512;7.504;2024-02-21T11:34:24;11.00;99.90
5415;DHT22;2730;51.512;7.504;2024-02-21T11:36:52;11.10;99.90
5415;DHT22;2730;51.512;7.504;2024-02-21T11:39:21;11.10;99.90
5415;DHT22;2730;51.512;7.504;2024-02-21T11:42:03;11.20;99.90
5415;DHT22;2730;51.512;7.504;2024-02-21T11:44:41;11.20;99.90
5415;DHT22;2730;51.512;7.504;2024-02-21T11:47:09;11.30;99.90
5415;DHT22;2730;51.512;7.504;2024-02-21T11:49:42;11.50;99.90
5415;DHT22;2730;51.512;7.504;2024-02-21T11:52:11;11.40;48.70
5415;DHT22;2730;51.512;7.504;2024-02-21T11:54:42;11.20;14.20
5415;DHT22;2730;51.512;7.504;2024-02-21T11:57:12;11.10;1.00
5415;DHT22;2730;51.512;7.504;2024-02-21T11:59:43;11.00;16.60
5415;DHT22;2730;51.512;7.504;2024-02-21T12:02:12;11.10;14.70
5415;DHT22;2730;51.512;7.504;2024-02-21T12:04:39;11.10;1.00
5415;DHT22;2730;51.512;7.504;2024-02-21T12:07:14;11.20;1.00
5415;DHT22;2730;51.512;7.504;2024-02-21T12:09:41;11.20;1.00
5415;DHT22;2730;51.512;7.504;2024-02-21T12:12:08;11.10;1.00
5415;DHT22;2730;51.512;7.504;2024-02-21T12:14:35;11.20;1.00
5415;DHT22;2730;51.512;7.504;2024-02-21T12:17:05;11.30;1.00
5415;DHT22;2730;51.512;7.504;2024-02-21T12:19:32;11.30;1.00
5415;DHT22;2730;51.512;7.504;2024-02-21T12:22:08;11.40;1.00
5415;DHT22;2730;51.512;7.504;2024-02-21T12:24:37;11.40;1.00
5415;DHT22;2730;51.512;7.504;2024-02-21T12:27:12;11.50;1.00
5415;DHT22;2730;51.512;7.504;2024-02-21T12:29:39;11.40;1.00
5415;DHT22;2730;51.512;7.504;2024-02-21T12:32:07;11.70;1.00
5415;DHT22;2730;51.512;7.504;2024-02-21T12:34:34;11.80;1.00
5415;DHT22;2730;51.512;7.504;2024-02-21T12:37:02;11.70;1.00
5415;DHT22;2730;51.512;7.504;2024-02-21T12:39:29;11.60;1.00
5415;DHT22;2730;51.512;7.504;2024-02-21T12:41:59;11.60;1.00
5415;DHT22;2730;51.512;7.504;2024-02-21T12:44:26;11.60;1.00
5415;DHT22;2730;51.512;7.504;2024-02-21T12:46:54;11.50;1.00
5415;DHT22;2730;51.512;7.504;2024-02-21T12:49:24;11.30;1.00
5415;DHT22;2730;51.512;7.504;2024-02-21T12:51:55;11.30;1.00
5415;DHT22;2730;51.512;7.504;2024-02-21T12:54:22;11.30;1.00
5415;DHT22;2730;51.512;7.504;2024-02-21T12:56:49;11.30;1.00
5415;DHT22;2730;51.512;7.504;2024-02-21T12:59:17;11.30;1.00
5415;DHT22;2730;51.512;7.504;2024-02-21T13:01:44;11.20;1.00
5415;DHT22;2730;51.512;7.504;2024-02-21T13:04:11;11.30;1.00
5415;DHT22;2730;51.512;7.504;2024-02-21T13:06:40;11.50;1.00
5415;DHT22;2730;51.512;7.504;2024-02-21T13:09:07;11.60;1.00
5415;DHT22;2730;51.512;7.504;2024-02-21T13:11:36;11.60;1.00
5415;DHT22;2730;51.512;7.504;2024-02-21T13:14:10;11.70;1.00
5415;DHT22;2730;51.512;7.504;2024-02-21T13:16:38;11.80;1.00
5415;DHT22;2730;51.512;7.504;2024-02-21T13:19:06;11.80;1.00
5415;DHT22;2730;51.512;7.504;2024-02-21T13:21:37;11.80;1.00
5415;DHT22;2730;51.512;7.504;2024-02-21T13:24:06;11.90;1.00
5415;DHT22;2730;51.512;7.504;2024-02-21T13:26:33;11.90;1.00
5415;DHT22;2730;51.512;7.504;2024-02-21T13:29:00;12.00;1.00
5415;DHT22;2730;51.512;7.504;2024-02-21T13:31:28;12.10;1.00
5415;DHT22;2730;51.512;7.504;2024-02-21T13:34:00;11.90;1.00
5415;DHT22;2730;51.512;7.504;2024-02-21T13:36:26;12.00;1.00
5415;DHT22;2730;51.512;7.504;2024-02-21T13:38:54;11.90;1.00
5415;DHT22;2730;51.512;7.504;2024-02-21T13:41:24;12.00;1.00
5415;DHT22;2730;51.512;7.504;2024-02-21T13:43:52;12.00;99.90
5415;DHT22;2730;51.512;7.504;2024-02-21T13:46:19;12.10;99.90
5415;DHT22;2730;51.512;7.504;2024-02-21T13:48:47;12.10;99.90
5415;DHT22;2730;51.512;7.504;2024-02-21T13:51:14;12.20;99.90
5415;DHT22;2730;51.512;7.504;2024-02-21T13:53:42;12.10;99.90
5415;DHT22;2730;51.512;7.504;2024-02-21T13:56:08;12.20;99.90
5415;DHT22;2730;51.512;7.504;2024-02-21T13:58:37;12.10;99.90
5415;DHT22;2730;51.512;7.504;2024-02-21T14:01:07;12.10;99.90
5415;DHT22;2730;51.512;7.504;2024-02-21T14:03:34;12.00;99.90
5415;DHT22;2730;51.512;7.504;2024-02-21T14:06:01;12.10;99.90
5415;DHT22;2730;51.512;7.504;2024-02-21T14:08:29;12.00;99.90
5415;DHT22;2730;51.512;7.504;2024-02-21T14:10:57;12.00;99.90
5415;DHT22;2730;51.512;7.504;2024-02-21T14:13:24;12.00;99.90
5415;DHT22;2730;51.512;7.504;2024-02-21T14:15:52;11.90;99.90
5415;DHT22;2730;51.512;7.504;2024-02-21T14:18:19;12.00;99.90
5415;DHT22;2730;51.512;7.504;2024-02-21T14:20:46;12.00;99.90
5415;DHT22;2730;51.512;7.504;2024-02-21T14:23:13;11.90;99.90
5415;DHT22;2730;51.512;7.504;2024-02-21T14:25:41;12.00;99.90
5415;DHT22;2730;51.512;7.504;2024-02-21T14:28:08;12.00;99.90
5415;DHT22;2730;51.512;7.504;2024-02-21T14:30:36;11.90;99.90
5415;DHT22;2730;51.512;7.504;2024-02-21T14:33:08;11.80;99.90
5415;DHT22;2730;51.512;7.504;2024-02-21T14:35:35;11.80;99.90
5415;DHT22;2730;51.512;7.504;2024-02-21T14:38:04;11.70;99.90
5415;DHT22;2730;51.512;7.504;2024-02-21T14:40:31;11.70;99.90
5415;DHT22;2730;51.512;7.504;2024-02-21T14:42:59;11.70;99.90
5415;DHT22;2730;51.512;7.504;2024-02-21T14:45:26;11.60;99.90
5415;DHT22;2730;51.512;7.504;2024-02-21T14:47:53;11.70;99.90
5415;DHT22;2730;51.512;7.504;2024-02-21T14:50:22;11.80;99.90
5415;DHT22;2730;51.512;7.504;2024-02-21T14:52:49;11.80;99.90
5415;DHT22;2730;51.512;7.504;2024-02-21T14:55:17;11.70;99.90
5415;DHT22;2730;51.512;7.504;2024-02-21T14:57:44;11.70;99.90
5415;DHT22;2730;51.512;7.504;2024-02-21T15:00:12;11.70;99.90
5415;DHT22;2730;51.512;7.504;2024-02-21T15:02:41;11.70;99.90
5415;DHT22;2730;51.512;7.504;2024-02-21T15:05:09;11.80;99.90
5415;DHT22;2730;51.512;7.504;2024-02-21T15:07:38;11.70;99.90
5415;DHT22;2730;51.512;7.504;2024-02-21T15:10:05;11.50;99.90
5415;DHT22;2730;51.512;7.504;2024-02-21T15:12:34;11.40;99.90
5415;DHT22;2730;51.512;7.504;2024-02-21T15:15:04;11.40;99.90
5415;DHT22;2730;51.512;7.504;2024-02-21T15:17:31;11.50;99.90
5415;DHT22;2730;51.512;7.504;2024-02-21T15:19:59;11.50;99.90
5415;DHT22;2730;51.512;7.504;2024-02-21T15:22:30;11.40;99.90
5415;DHT22;2730;51.512;7.504;2024-02-21T15:24:58;11.30;99.90
5415;DHT22;2730;51.512;7.504;2024-02-21T15:27:27;11.40;99.90
5415;DHT22;2730;51.512;7.504;2024-02-21T15:29:54;11.30;99.90
5415;DHT22;2730;51.512;7.504;2024-02-21T15:32:22;11.20;99.90
5415;DHT22;2730;51.512;7.504;2024-02-21T15:34:49;11.10;99.90
5415;DHT22;2730;51.512;7.504;2024-02-21T15:37:18;11.10;1.00
5415;DHT22;2730;51.512;7.504;2024-02-21T15:39:55;11.20;99.90
5415;DHT22;2730;51.512;7.504;2024-02-21T15:42:23;11.10;99.90
5415;DHT22;2730;51.512;7.504;2024-02-21T15:44:50;11.10;99.90
5415;DHT22;2730;51.512;7.504;2024-02-21T15:47:17;11.00;1.00
5415;DHT22;2730;51.512;7.504;2024-02-21T15:49:48;11.00;1.00
5415;DHT22;2730;51.512;7.504;2024-02-21T15:52:16;11.10;99.90
5415;DHT22;2730;51.512;7.504;2024-02-21T15:54:43;11.00;99.90
5415;DHT22;2730;51.512;7.504;2024-02-21T15:57:13;10.90;99.90
5415;DHT22;2730;51.512;7.504;2024-02-21T15:59:42;10.90;99.90
5415;DHT22;2730;51.512;7.504;2024-02-21T16:02:08;10.80;99.90
5415;DHT22;2730;51.512;7.504;2024-02-21T16:04:35;10.80;99.90
5415;DHT22;2730;51.512;7.504;2024-02-21T16:07:02;10.80;99.90
5415;DHT22;2730;51.512;7.504;2024-02-21T16:09:30;10.80;99.90
5415;DHT22;2730;51.512;7.504;2024-02-21T16:11:57;10.80;99.90
5415;DHT22;2730;51.512;7.504;2024-02-21T16:14:29;10.70;99.90
5415;DHT22;2730;51.512;7.504;2024-02-21T16:16:58;10.80;99.90
5415;DHT22;2730;51.512;7.504;2024-02-21T16:19:25;10.80;99.90
5415;DHT22;2730;51.512;7.504;2024-02-21T16:21:54;10.70;99.90
5415;DHT22;2730;51.512;7.504;2024-02-21T16:24:20;10.80;99.90
5415;DHT22;2730;51.512;7.504;2024-02-21T16:26:47;10.70;99.90